createdAt,value
2017-12-29T00:02:13.474Z,5.90
2017-12-29T00:04:39.687Z,5.50
2017-12-29T00:07:05.897Z,6.18
2017-12-29T00:09:32.138Z,9.63
2017-12-29T00:11:58.369Z,6.78
2017-12-29T00:14:24.615Z,7.55
2017-12-29T00:16:50.849Z,5.30
2017-12-29T00:19:17.071Z,5.37
2017-12-29T00:21:43.320Z,6.22
2017-12-29T00:24:09.517Z,5.30
2017-12-29T00:26:35.743Z,10.52
2017-12-29T00:29:01.942Z,7.78
2017-12-29T00:31:28.258Z,11.77
2017-12-29T00:33:54.534Z,7.78
2017-12-29T00:36:20.760Z,6.62
2017-12-29T00:38:46.975Z,6.90
2017-12-29T00:41:13.186Z,8.30
2017-12-29T00:43:39.406Z,6.22
2017-12-29T00:46:06.008Z,4.03
2017-12-29T00:48:33.000Z,4.82
2017-12-29T00:50:59.588Z,5.87
2017-12-29T00:53:25.786Z,4.50
2017-12-29T00:55:52.025Z,4.75
2017-12-29T00:58:18.373Z,4.97
2017-12-29T01:00:44.620Z,5.25
2017-12-29T01:03:10.874Z,4.82
2017-12-29T01:05:37.564Z,7.30
2017-12-29T01:08:03.795Z,5.00
2017-12-29T01:10:30.008Z,5.18
2017-12-29T01:12:56.216Z,4.93
2017-12-29T01:15:22.455Z,5.82
2017-12-29T01:17:48.689Z,6.85
2017-12-29T01:20:14.910Z,6.82
2017-12-29T01:22:41.099Z,5.87
2017-12-29T01:25:07.729Z,6.22
2017-12-29T01:27:33.973Z,7.60
2017-12-29T01:30:00.204Z,6.47
2017-12-29T01:32:26.432Z,6.50
2017-12-29T01:34:52.653Z,4.95
2017-12-29T01:37:19.278Z,5.50
2017-12-29T01:39:45.497Z,5.60
2017-12-29T01:42:11.721Z,5.82
2017-12-29T01:44:38.060Z,6.60
2017-12-29T01:47:04.259Z,4.65
2017-12-29T01:49:30.491Z,5.32
2017-12-29T01:51:56.692Z,4.32
2017-12-29T01:54:22.909Z,3.97
2017-12-29T01:56:49.151Z,4.72
2017-12-29T01:59:15.343Z,5.47
2017-12-29T02:01:41.562Z,4.68
2017-12-29T02:04:07.799Z,5.35
2017-12-29T02:06:34.030Z,4.45
2017-12-29T02:09:00.245Z,5.28
2017-12-29T02:11:26.449Z,5.25
2017-12-29T02:13:52.672Z,5.75
2017-12-29T02:16:18.873Z,4.30
2017-12-29T02:18:45.098Z,5.60
2017-12-29T02:21:11.331Z,5.15
2017-12-29T02:23:37.534Z,6.82
2017-12-29T02:26:04.147Z,4.82
2017-12-29T02:28:30.356Z,3.92
2017-12-29T02:30:56.603Z,6.18
2017-12-29T02:33:22.812Z,7.60
2017-12-29T02:35:49.009Z,3.85
2017-12-29T02:38:15.257Z,2.83
2017-12-29T02:40:41.461Z,3.47
2017-12-29T02:43:07.688Z,4.32
2017-12-29T02:45:33.929Z,5.53
2017-12-29T02:48:00.140Z,7.80
2017-12-29T02:50:26.359Z,6.70
2017-12-29T02:52:52.588Z,8.52
2017-12-29T02:55:18.812Z,3.42
2017-12-29T02:57:45.036Z,3.03
2017-12-29T03:00:12.035Z,6.22
2017-12-29T03:02:38.301Z,5.57
2017-12-29T03:05:04.467Z,4.28
2017-12-29T03:07:30.703Z,9.00
2017-12-29T03:09:56.912Z,3.05
2017-12-29T03:12:23.172Z,3.87
2017-12-29T03:14:49.421Z,3.70
2017-12-29T03:17:15.610Z,4.93
2017-12-29T03:19:42.372Z,3.85
2017-12-29T03:22:08.603Z,7.90
2017-12-29T03:24:34.844Z,3.90
2017-12-29T03:27:01.027Z,3.20
2017-12-29T03:29:27.225Z,4.00
2017-12-29T03:31:54.824Z,5.37
2017-12-29T03:34:21.029Z,4.40
2017-12-29T03:36:47.256Z,3.30
2017-12-29T03:39:13.490Z,3.90
2017-12-29T03:41:39.703Z,3.00
2017-12-29T03:44:05.902Z,4.30
2017-12-29T03:46:36.536Z,3.55
2017-12-29T03:49:08.814Z,6.03
2017-12-29T03:51:35.417Z,3.30
2017-12-29T03:54:01.655Z,2.67
2017-12-29T03:56:27.872Z,3.20
2017-12-29T03:58:54.064Z,5.00
2017-12-29T04:01:20.288Z,3.87
2017-12-29T04:03:47.053Z,3.60
2017-12-29T04:06:13.247Z,3.20
2017-12-29T04:08:39.481Z,7.85
2017-12-29T04:11:09.488Z,4.62
2017-12-29T04:13:37.465Z,5.20
2017-12-29T04:16:03.693Z,4.85
2017-12-29T04:18:29.903Z,4.97
2017-12-29T04:20:56.464Z,4.47
2017-12-29T04:23:22.704Z,4.97
2017-12-29T04:25:48.925Z,7.85
2017-12-29T04:28:15.144Z,4.78
2017-12-29T04:30:41.388Z,6.07
2017-12-29T04:33:07.585Z,4.25
2017-12-29T04:35:33.827Z,5.85
2017-12-29T04:38:00.062Z,8.80
2017-12-29T04:40:26.285Z,5.87
2017-12-29T04:42:52.498Z,6.07
2017-12-29T04:45:18.725Z,6.03
2017-12-29T04:47:44.933Z,5.03
2017-12-29T04:50:11.136Z,5.78
2017-12-29T04:52:37.335Z,4.22
2017-12-29T04:55:03.530Z,4.28
2017-12-29T04:57:30.124Z,5.18
2017-12-29T04:59:56.322Z,7.07
2017-12-29T05:02:22.580Z,6.75
2017-12-29T05:04:48.771Z,9.95
2017-12-29T05:07:14.974Z,8.48
2017-12-29T05:09:41.231Z,7.37
2017-12-29T05:12:07.435Z,5.70
2017-12-29T05:14:33.653Z,5.32
2017-12-29T05:16:59.892Z,4.78
2017-12-29T05:19:29.256Z,4.00
2017-12-29T05:21:56.293Z,4.97
2017-12-29T05:24:22.508Z,7.15
2017-12-29T05:26:48.734Z,6.35
2017-12-29T05:29:14.939Z,4.47
2017-12-29T05:31:41.144Z,3.55
2017-12-29T05:34:07.357Z,4.05
2017-12-29T05:36:33.593Z,4.40
2017-12-29T05:38:59.847Z,2.90
2017-12-29T05:41:26.056Z,2.97
2017-12-29T05:43:52.265Z,3.75
2017-12-29T05:46:19.000Z,4.03
2017-12-29T05:48:45.605Z,7.05
2017-12-29T05:51:11.821Z,4.47
2017-12-29T05:53:38.064Z,8.75
2017-12-29T05:56:04.279Z,4.95
2017-12-29T05:58:30.478Z,4.95
2017-12-29T06:00:58.176Z,6.53
2017-12-29T06:03:24.352Z,6.05
2017-12-29T06:05:50.575Z,4.12
2017-12-29T06:08:17.160Z,5.15
2017-12-29T06:10:43.370Z,4.85
2017-12-29T06:13:09.607Z,6.20
2017-12-29T06:15:35.827Z,4.20
2017-12-29T06:18:02.029Z,4.18
2017-12-29T06:20:28.608Z,7.20
2017-12-29T06:22:54.826Z,5.90
2017-12-29T06:25:21.049Z,4.45
2017-12-29T06:27:47.277Z,5.80
2017-12-29T06:30:13.493Z,6.75
2017-12-29T06:32:39.721Z,5.93
2017-12-29T06:35:05.946Z,5.57
2017-12-29T06:37:32.140Z,4.75
2017-12-29T06:39:59.271Z,5.20
2017-12-29T06:42:26.137Z,7.93
2017-12-29T06:44:52.378Z,4.55
2017-12-29T06:47:18.967Z,9.23
2017-12-29T06:49:45.803Z,7.03
2017-12-29T06:52:12.117Z,5.45
2017-12-29T06:54:38.324Z,5.90
2017-12-29T06:57:04.560Z,6.93
2017-12-29T06:59:30.773Z,4.30
2017-12-29T07:01:57.374Z,5.32
2017-12-29T07:04:23.664Z,5.15
2017-12-29T07:06:49.881Z,8.98
2017-12-29T07:09:16.130Z,7.72
2017-12-29T07:11:42.365Z,6.25
2017-12-29T07:14:08.593Z,8.60
2017-12-29T07:16:34.822Z,8.68
2017-12-29T07:19:01.069Z,4.70
2017-12-29T07:21:27.301Z,5.20
2017-12-29T07:23:53.543Z,5.80
2017-12-29T07:26:19.760Z,5.43
2017-12-29T07:28:51.130Z,7.97
2017-12-29T07:31:19.097Z,6.85
2017-12-29T07:33:45.779Z,7.03
2017-12-29T07:36:12.787Z,7.78
2017-12-29T07:38:39.370Z,10.80
2017-12-29T07:41:05.582Z,11.00
2017-12-29T07:43:31.935Z,9.70
2017-12-29T07:45:58.127Z,9.95
2017-12-29T07:48:24.360Z,13.27
2017-12-29T07:50:50.546Z,10.57
2017-12-29T07:53:16.819Z,10.32
2017-12-29T07:55:43.043Z,10.05
2017-12-29T07:58:09.241Z,8.27
2017-12-29T08:00:35.495Z,6.35
2017-12-29T08:03:01.768Z,7.57
2017-12-29T08:05:27.987Z,5.75
2017-12-29T08:07:54.188Z,13.60
2017-12-29T08:10:20.409Z,6.90
2017-12-29T08:12:46.616Z,6.28
2017-12-29T08:15:13.211Z,6.90
2017-12-29T08:17:39.415Z,5.30
2017-12-29T08:20:05.653Z,8.95
2017-12-29T08:22:31.892Z,9.20
2017-12-29T08:24:58.115Z,8.43
2017-12-29T08:27:24.364Z,11.43
2017-12-29T08:29:50.686Z,12.73
2017-12-29T08:32:17.436Z,7.15
2017-12-29T08:34:43.704Z,5.72
2017-12-29T08:37:10.578Z,8.20
2017-12-29T08:39:37.457Z,6.00
2017-12-29T08:42:03.674Z,6.80
2017-12-29T08:44:29.920Z,8.10
2017-12-29T08:46:56.248Z,6.15
2017-12-29T08:49:22.791Z,10.13
2017-12-29T08:51:48.983Z,10.55
2017-12-29T08:54:15.431Z,7.45
2017-12-29T08:56:41.669Z,10.68
2017-12-29T08:59:07.918Z,9.27
2017-12-29T09:01:34.544Z,8.50
2017-12-29T09:04:00.775Z,12.15
2017-12-29T09:06:27.365Z,7.95
2017-12-29T09:08:53.711Z,11.85
2017-12-29T09:11:21.370Z,6.03
2017-12-29T09:13:47.652Z,8.07
2017-12-29T09:16:13.888Z,7.35
2017-12-29T09:18:46.481Z,5.68
2017-12-29T09:21:13.498Z,11.12
2017-12-29T09:23:39.733Z,8.35
2017-12-29T09:26:05.974Z,8.50
2017-12-29T09:28:32.212Z,7.62
2017-12-29T09:30:58.593Z,6.47
2017-12-29T09:33:24.835Z,6.72
2017-12-29T09:35:51.100Z,9.32
2017-12-29T09:38:17.819Z,6.68
2017-12-29T09:40:44.128Z,7.55
2017-12-29T09:43:10.482Z,6.85
2017-12-29T09:45:36.716Z,5.37
2017-12-29T09:48:02.952Z,7.57
2017-12-29T09:50:29.221Z,5.55
2017-12-29T09:52:55.433Z,4.53
2017-12-29T09:55:21.724Z,5.20
2017-12-29T09:57:49.901Z,5.82
2017-12-29T10:00:16.160Z,5.10
2017-12-29T10:02:42.391Z,5.10
2017-12-29T10:05:08.740Z,5.07
2017-12-29T10:07:35.061Z,5.93
2017-12-29T10:10:01.416Z,6.20
2017-12-29T10:12:27.712Z,4.40
2017-12-29T10:14:53.925Z,4.70
2017-12-29T10:17:20.242Z,5.62
2017-12-29T10:19:46.532Z,5.55
2017-12-29T10:22:12.808Z,4.55
2017-12-29T10:24:39.109Z,8.18
2017-12-29T10:27:05.729Z,7.12
2017-12-29T10:29:32.047Z,6.53
2017-12-29T10:31:58.316Z,6.22
2017-12-29T10:34:24.564Z,4.22
2017-12-29T10:36:51.751Z,5.07
2017-12-29T10:39:18.014Z,6.72
2017-12-29T10:41:44.277Z,4.20
2017-12-29T10:44:10.501Z,4.15
2017-12-29T10:46:36.750Z,8.00
2017-12-29T10:49:03.022Z,4.50
2017-12-29T10:51:29.702Z,5.80
2017-12-29T10:53:55.965Z,4.60
2017-12-29T10:56:22.214Z,5.05
2017-12-29T10:58:48.535Z,5.68
2017-12-29T11:01:14.777Z,5.00
2017-12-29T11:03:41.399Z,5.10
2017-12-29T11:06:07.749Z,4.37
2017-12-29T11:08:34.191Z,4.75
2017-12-29T11:11:00.499Z,3.80
2017-12-29T11:13:26.734Z,5.40
2017-12-29T11:15:52.949Z,3.70
2017-12-29T11:18:19.260Z,4.97
2017-12-29T11:20:46.286Z,5.80
2017-12-29T11:23:12.541Z,4.32
2017-12-29T11:25:38.816Z,4.45
2017-12-29T11:28:05.039Z,6.10
2017-12-29T11:30:31.282Z,7.12
2017-12-29T11:32:57.803Z,5.90
2017-12-29T11:35:24.046Z,3.53
2017-12-29T11:37:50.317Z,4.62
2017-12-29T11:40:17.414Z,7.12
2017-12-29T11:42:43.729Z,3.30
2017-12-29T11:45:09.974Z,4.05
2017-12-29T11:47:36.250Z,2.78
2017-12-29T11:50:02.540Z,4.60
2017-12-29T11:52:28.941Z,2.90
2017-12-29T11:54:55.255Z,3.10
2017-12-29T11:57:21.746Z,2.83
2017-12-29T11:59:48.371Z,2.62
2017-12-29T12:02:14.627Z,4.12
2017-12-29T12:04:41.722Z,5.22
2017-12-29T12:07:08.039Z,3.83
2017-12-29T12:09:35.174Z,3.42
2017-12-29T12:12:01.424Z,3.20
2017-12-29T12:14:27.677Z,3.30
2017-12-29T12:16:53.953Z,3.58
2017-12-29T12:19:20.267Z,4.40
2017-12-29T12:21:46.869Z,2.55
2017-12-29T12:24:14.925Z,4.00
2017-12-29T12:26:42.034Z,3.37
2017-12-29T12:29:08.645Z,3.08
2017-12-29T12:31:34.934Z,4.45
2017-12-29T12:34:01.136Z,8.23
2017-12-29T12:36:27.443Z,2.85
2017-12-29T12:38:54.082Z,4.05
2017-12-29T12:41:20.691Z,4.82
2017-12-29T12:43:46.966Z,2.92
2017-12-29T12:46:13.236Z,2.85
2017-12-29T12:48:39.479Z,1.70
2017-12-29T12:51:05.686Z,2.78
2017-12-29T12:53:31.933Z,3.53
2017-12-29T12:55:58.167Z,2.50
2017-12-29T12:58:24.377Z,4.22
2017-12-29T13:00:50.625Z,2.05
2017-12-29T13:03:17.708Z,4.57
2017-12-29T13:05:43.974Z,3.08
2017-12-29T13:08:10.211Z,5.97
2017-12-29T13:10:36.518Z,4.30
2017-12-29T13:13:02.792Z,2.58
2017-12-29T13:15:29.044Z,2.37
2017-12-29T13:17:55.287Z,3.95
2017-12-29T13:20:21.528Z,2.30
2017-12-29T13:22:47.763Z,3.65
2017-12-29T13:25:14.028Z,3.58
2017-12-29T13:27:40.402Z,5.97
2017-12-29T13:30:06.633Z,8.07
2017-12-29T13:32:32.886Z,2.80
2017-12-29T13:34:59.444Z,2.70
2017-12-29T13:37:25.693Z,6.03
2017-12-29T13:39:51.922Z,4.12
2017-12-29T13:42:18.164Z,3.65
2017-12-29T13:44:44.438Z,4.32
2017-12-29T13:47:10.726Z,8.02
2017-12-29T13:49:37.313Z,4.97
2017-12-29T13:52:03.582Z,4.60
2017-12-29T13:54:30.176Z,3.95
2017-12-29T13:56:56.460Z,5.65
2017-12-29T13:59:23.066Z,6.05
2017-12-29T14:01:49.318Z,5.65
2017-12-29T14:04:16.912Z,3.85
2017-12-29T14:06:43.215Z,4.12
2017-12-29T14:09:09.437Z,4.85
2017-12-29T14:11:36.111Z,3.83
2017-12-29T14:14:02.355Z,3.22
2017-12-29T14:16:29.346Z,2.92
2017-12-29T14:18:55.996Z,4.37
2017-12-29T14:21:23.006Z,4.62
2017-12-29T14:23:49.221Z,3.60
2017-12-29T14:26:16.058Z,3.55
2017-12-29T14:28:42.307Z,3.10
2017-12-29T14:31:08.647Z,4.82
2017-12-29T14:33:34.831Z,6.25
2017-12-29T14:36:01.096Z,2.75
2017-12-29T14:38:27.330Z,3.00
2017-12-29T14:40:53.641Z,3.10
2017-12-29T14:43:19.937Z,5.30
2017-12-29T14:45:47.165Z,7.43
2017-12-29T14:48:13.414Z,3.20
2017-12-29T14:50:39.673Z,3.37
2017-12-29T14:53:05.913Z,3.47
2017-12-29T14:55:32.159Z,4.37
2017-12-29T14:57:58.404Z,6.10
2017-12-29T15:00:25.099Z,4.18
2017-12-29T15:02:51.353Z,4.28
2017-12-29T15:05:17.581Z,5.70
2017-12-29T15:07:43.893Z,4.07
2017-12-29T15:10:10.124Z,6.07
2017-12-29T15:12:36.460Z,3.45
2017-12-29T15:15:02.746Z,4.35
2017-12-29T15:17:29.038Z,6.15
2017-12-29T15:19:55.657Z,5.70
2017-12-29T15:22:21.881Z,4.90
2017-12-29T15:24:48.136Z,11.60
2017-12-29T15:27:14.804Z,5.10
2017-12-29T15:29:41.113Z,8.73
2017-12-29T15:32:07.722Z,5.95
2017-12-29T15:34:33.954Z,6.22
2017-12-29T15:37:00.261Z,4.53
2017-12-29T15:39:26.494Z,5.30
2017-12-29T15:41:52.761Z,8.07
2017-12-29T15:44:19.055Z,4.75
2017-12-29T15:46:45.349Z,5.03
2017-12-29T15:49:11.620Z,6.60
2017-12-29T15:51:38.792Z,6.03
2017-12-29T15:54:05.498Z,6.10
2017-12-29T15:56:32.488Z,4.62
2017-12-29T15:58:59.082Z,5.80
2017-12-29T16:01:28.157Z,6.25
2017-12-29T16:03:54.377Z,6.07
2017-12-29T16:06:20.603Z,4.55
2017-12-29T16:08:46.868Z,7.55
2017-12-29T16:11:13.579Z,4.80
2017-12-29T16:13:39.851Z,4.60
2017-12-29T16:16:06.130Z,5.25
2017-12-29T16:18:32.498Z,4.78
2017-12-29T16:20:58.792Z,5.32
2017-12-29T16:23:25.069Z,9.77
2017-12-29T16:25:51.358Z,6.87
2017-12-29T16:28:17.585Z,5.82
2017-12-29T16:30:43.856Z,6.68
2017-12-29T16:33:10.121Z,7.40
2017-12-29T16:35:36.386Z,5.80
2017-12-29T16:38:02.637Z,5.20
2017-12-29T16:40:28.865Z,9.60
2017-12-29T16:42:55.174Z,11.52
2017-12-29T16:45:21.417Z,18.10
2017-12-29T16:47:47.714Z,17.08
2017-12-29T16:50:14.002Z,26.10
2017-12-29T16:52:40.710Z,14.95
2017-12-29T16:55:06.968Z,11.82
2017-12-29T16:57:33.196Z,4.87
2017-12-29T16:59:59.508Z,5.60
2017-12-29T17:02:25.766Z,3.60
2017-12-29T17:04:53.044Z,5.30
2017-12-29T17:07:19.279Z,5.10
2017-12-29T17:09:45.537Z,4.80
2017-12-29T17:12:11.825Z,4.75
2017-12-29T17:14:38.089Z,5.03
2017-12-29T17:17:04.391Z,4.12
2017-12-29T17:19:30.640Z,4.45
2017-12-29T17:21:56.937Z,4.68
2017-12-29T17:24:23.177Z,5.20
2017-12-29T17:26:49.474Z,8.60
2017-12-29T17:29:16.160Z,4.18
2017-12-29T17:31:42.439Z,4.00
2017-12-29T17:34:08.704Z,5.18
2017-12-29T17:36:34.962Z,3.67
2017-12-29T17:39:01.273Z,5.25
2017-12-29T17:41:27.591Z,6.85
2017-12-29T17:43:53.852Z,8.38
2017-12-29T17:46:21.116Z,6.37
2017-12-29T17:48:47.384Z,4.68
2017-12-29T17:51:13.638Z,4.40
2017-12-29T17:53:40.816Z,6.68
2017-12-29T17:56:07.047Z,5.93
2017-12-29T17:58:33.318Z,5.62
2017-12-29T18:00:59.549Z,4.90
2017-12-29T18:03:25.829Z,11.82
2017-12-29T18:05:52.073Z,6.28
2017-12-29T18:08:18.346Z,5.82
2017-12-29T18:10:44.609Z,4.93
2017-12-29T18:13:11.511Z,5.32
2017-12-29T18:15:39.872Z,4.43
2017-12-29T18:18:06.101Z,5.28
2017-12-29T18:20:33.250Z,4.40
2017-12-29T18:22:59.902Z,4.75
2017-12-29T18:25:26.224Z,4.60
2017-12-29T18:27:52.499Z,5.60
2017-12-29T18:30:18.804Z,7.22
2017-12-29T18:32:45.060Z,3.20
2017-12-29T18:35:11.356Z,5.95
2017-12-29T18:37:37.757Z,5.65
2017-12-29T18:40:04.047Z,5.03
2017-12-29T18:42:30.333Z,5.18
2017-12-29T18:44:56.631Z,3.75
2017-12-29T18:47:22.873Z,3.40
2017-12-29T18:49:50.228Z,3.47
2017-12-29T18:52:16.870Z,3.47
2017-12-29T18:54:43.494Z,6.20
2017-12-29T18:57:09.806Z,4.80
2017-12-29T18:59:36.027Z,2.00
2017-12-29T19:02:02.283Z,3.92
2017-12-29T19:04:29.007Z,4.28
2017-12-29T19:06:55.291Z,3.40
2017-12-29T19:09:21.582Z,3.33
2017-12-29T19:11:47.828Z,3.60
2017-12-29T19:14:14.110Z,5.78
2017-12-29T19:16:40.445Z,3.62
2017-12-29T19:19:06.748Z,3.75
2017-12-29T19:21:33.013Z,4.30
2017-12-29T19:23:59.287Z,5.30
2017-12-29T19:26:25.583Z,4.65
2017-12-29T19:28:51.860Z,3.67
2017-12-29T19:31:18.716Z,3.40
2017-12-29T19:33:44.990Z,3.62
2017-12-29T19:36:11.766Z,3.22
2017-12-29T19:38:38.102Z,3.50
2017-12-29T19:41:04.354Z,4.90
2017-12-29T19:43:30.661Z,4.35
2017-12-29T19:45:56.962Z,4.93
2017-12-29T19:48:23.325Z,3.50
2017-12-29T19:50:49.689Z,4.93
2017-12-29T19:53:16.001Z,36.80
2017-12-29T19:55:42.273Z,56.67
2017-12-29T19:58:08.541Z,46.67
2017-12-29T20:00:35.737Z,62.67
2017-12-29T20:03:01.996Z,64.45
2017-12-29T20:05:28.252Z,65.32
2017-12-29T20:07:54.516Z,76.57
2017-12-29T20:10:21.721Z,65.57
2017-12-29T20:12:47.966Z,70.43
2017-12-29T20:15:14.250Z,72.15
2017-12-29T20:17:40.970Z,72.75
2017-12-29T20:20:07.598Z,84.68
2017-12-29T20:22:33.897Z,72.37
2017-12-29T20:25:00.205Z,79.20
2017-12-29T20:27:26.536Z,75.43
2017-12-29T20:29:53.393Z,73.53
2017-12-29T20:32:19.694Z,71.15
2017-12-29T20:34:46.355Z,71.05
2017-12-29T20:37:12.819Z,68.25
2017-12-29T20:39:39.136Z,72.62
2017-12-29T20:42:05.403Z,66.95
2017-12-29T20:44:32.562Z,69.15
2017-12-29T20:46:59.239Z,69.20
2017-12-29T20:49:25.564Z,76.75
2017-12-29T20:51:51.893Z,79.82
2017-12-29T20:54:19.246Z,97.05
2017-12-29T20:56:45.598Z,69.50
2017-12-29T20:59:11.941Z,71.65
2017-12-29T21:01:38.244Z,70.12
2017-12-29T21:04:04.590Z,69.65
2017-12-29T21:06:30.890Z,70.53
2017-12-29T21:08:57.204Z,69.70
2017-12-29T21:11:23.555Z,70.93
2017-12-29T21:13:50.578Z,71.62
2017-12-29T21:16:17.315Z,73.07
2017-12-29T21:18:43.596Z,77.35
2017-12-29T21:21:09.912Z,75.57
2017-12-29T21:23:36.233Z,74.75
2017-12-29T21:26:02.528Z,73.72
2017-12-29T21:28:28.903Z,74.70
2017-12-29T21:30:55.188Z,72.97
2017-12-29T21:33:21.496Z,71.97
2017-12-29T21:35:47.806Z,73.47
2017-12-29T21:38:14.069Z,70.22
2017-12-29T21:40:40.373Z,74.15
2017-12-29T21:43:06.693Z,75.03
2017-12-29T21:45:33.018Z,69.87
2017-12-29T21:47:59.264Z,69.78
2017-12-29T21:50:25.609Z,75.60
2017-12-29T21:52:51.881Z,76.40
2017-12-29T21:55:18.200Z,76.10
2017-12-29T21:57:44.840Z,81.55
2017-12-29T22:00:11.066Z,75.60
2017-12-29T22:02:37.395Z,72.30
2017-12-29T22:05:04.145Z,70.78
2017-12-29T22:07:30.504Z,69.90
2017-12-29T22:09:56.801Z,62.92
2017-12-29T22:12:23.052Z,58.15
2017-12-29T22:14:49.345Z,56.95
2017-12-29T22:17:15.970Z,55.85
2017-12-29T22:19:42.257Z,55.67
2017-12-29T22:22:08.574Z,51.15
2017-12-29T22:24:34.856Z,52.83
2017-12-29T22:27:02.078Z,50.85
2017-12-29T22:29:28.373Z,50.70
2017-12-29T22:31:55.220Z,48.85
2017-12-29T22:34:21.545Z,38.92
2017-12-29T22:36:47.817Z,32.97
2017-12-29T22:39:14.072Z,26.60
2017-12-29T22:41:40.363Z,22.77
2017-12-29T22:44:07.200Z,14.50
2017-12-29T22:46:33.510Z,11.20
2017-12-29T22:48:59.766Z,8.70
2017-12-29T22:51:26.052Z,8.52
2017-12-29T22:53:53.266Z,8.65
2017-12-29T22:56:19.558Z,10.27
2017-12-29T22:58:45.872Z,10.30
2017-12-29T23:01:13.734Z,9.52
2017-12-29T23:03:40.048Z,10.35
2017-12-29T23:06:06.766Z,9.48
2017-12-29T23:08:33.119Z,10.50
2017-12-29T23:10:59.827Z,9.60
2017-12-29T23:13:26.092Z,10.20
2017-12-29T23:15:52.778Z,10.43
2017-12-29T23:18:19.022Z,8.98
2017-12-29T23:20:45.283Z,11.43
2017-12-29T23:23:12.554Z,8.20
2017-12-29T23:25:38.835Z,7.68
2017-12-29T23:28:05.139Z,7.95
2017-12-29T23:30:31.411Z,7.72
2017-12-29T23:32:57.687Z,7.47
2017-12-29T23:35:23.923Z,7.93
2017-12-29T23:37:50.222Z,8.23
2017-12-29T23:40:16.461Z,7.95
2017-12-29T23:42:42.746Z,7.72
2017-12-29T23:45:09.002Z,8.05
2017-12-29T23:47:35.691Z,10.32
2017-12-29T23:50:01.940Z,9.90
2017-12-29T23:52:28.198Z,12.02
2017-12-29T23:54:54.592Z,14.87
2017-12-29T23:57:20.841Z,13.20
2017-12-29T23:59:47.100Z,15.50
